createdAt,value
2022-11-20T00:01:24.741Z,101659.03
2022-11-20T00:03:53.284Z,101667.50
2022-11-20T00:06:21.176Z,101677.44
2022-11-20T00:08:51.141Z,101675.72
2022-11-20T00:11:22.452Z,101689.63
2022-11-20T00:13:51.906Z,101685.63
2022-11-20T00:16:21.462Z,101689.63
2022-11-20T00:18:53.223Z,101686.94
2022-11-20T00:21:23.246Z,101675.09
2022-11-20T00:23:54.843Z,101681.34
2022-11-20T00:26:24.223Z,101683.28
2022-11-20T00:28:53.820Z,101690.06
2022-11-20T00:31:22.248Z,101692.09
2022-11-20T00:33:51.295Z,101701.69
2022-11-20T00:36:22.372Z,101720.13
2022-11-20T00:38:57.919Z,101721.88
2022-11-20T00:41:30.222Z,101723.91
2022-11-20T00:43:58.233Z,101718.91
2022-11-20T00:46:27.493Z,101719.69
2022-11-20T00:48:55.351Z,101708.94
2022-11-20T00:51:27.376Z,101703.09
2022-11-20T00:53:59.002Z,101689.75
2022-11-20T00:56:26.794Z,101683.06
2022-11-20T00:58:55.496Z,101698.16
2022-11-20T01:01:27.834Z,101686.41
2022-11-20T01:03:56.435Z,101670.47
2022-11-20T01:06:29.401Z,101660.59
2022-11-20T01:08:59.456Z,101656.28
2022-11-20T01:11:29.055Z,101649.94
2022-11-20T01:13:57.885Z,101648.66
2022-11-20T01:16:32.937Z,101643.59
2022-11-20T01:19:05.882Z,101638.00
2022-11-20T01:21:35.496Z,101639.72
2022-11-20T01:24:09.104Z,101649.28
2022-11-20T01:26:37.779Z,101640.03
2022-11-20T01:29:06.096Z,101649.94
2022-11-20T01:31:35.159Z,101656.94
2022-11-20T01:34:04.757Z,101652.00
2022-11-20T01:36:33.045Z,101637.47
2022-11-20T01:39:02.751Z,101636.91
2022-11-20T01:41:49.884Z,101648.75
2022-11-20T01:44:20.623Z,101635.75
2022-11-20T01:46:57.145Z,101647.59
2022-11-20T01:49:29.849Z,101666.84
2022-11-20T01:52:00.701Z,101663.72
2022-11-20T01:54:37.706Z,101636.28
2022-11-20T01:57:05.365Z,101632.94
2022-11-20T01:59:35.574Z,101617.66
2022-11-20T02:02:03.506Z,101597.00
2022-11-20T02:04:33.765Z,101606.16
2022-11-20T02:07:02.484Z,101611.28
2022-11-20T02:09:30.223Z,101594.63
2022-11-20T02:11:58.699Z,101605.84
2022-11-20T02:14:26.262Z,101620.25
2022-11-20T02:16:54.484Z,101643.50
2022-11-20T02:19:28.947Z,101651.97
2022-11-20T02:22:29.867Z,101647.03
2022-11-20T02:24:58.540Z,101641.53
2022-11-20T02:27:26.576Z,101640.47
2022-11-20T02:29:56.476Z,101654.88
2022-11-20T02:32:27.203Z,101656.22
2022-11-20T02:34:55.123Z,101675.03
2022-11-20T02:37:22.928Z,101680.97
2022-11-20T02:39:51.679Z,101660.38
2022-11-20T02:42:19.712Z,101659.13
2022-11-20T02:44:47.443Z,101665.78
2022-11-20T02:47:15.306Z,101663.41
2022-11-20T02:49:44.245Z,101679.56
2022-11-20T02:52:11.953Z,101660.47
2022-11-20T02:54:40.200Z,101629.19
2022-11-20T02:57:08.401Z,101627.13
2022-11-20T02:59:36.244Z,101626.50
2022-11-20T03:02:04.198Z,101623.06
2022-11-20T03:04:33.134Z,101617.44
2022-11-20T03:07:00.873Z,101647.56
2022-11-20T03:09:28.870Z,101647.91
2022-11-20T03:11:56.637Z,101647.81
2022-11-20T03:14:24.357Z,101660.28
2022-11-20T03:16:52.153Z,101670.81
2022-11-20T03:19:21.019Z,101676.00
2022-11-20T03:21:49.187Z,101654.03
2022-11-20T03:24:16.894Z,101648.03
2022-11-20T03:26:44.978Z,101654.03
2022-11-20T03:29:13.213Z,101656.19
2022-11-20T03:31:41.683Z,101649.97
2022-11-20T03:34:10.449Z,101641.34
2022-11-20T03:36:40.772Z,101659.94
2022-11-20T03:39:13.322Z,101651.25
2022-11-20T03:41:44.686Z,101663.72
2022-11-20T03:44:12.721Z,101674.47
2022-11-20T03:46:40.566Z,101689.44
2022-11-20T03:49:08.417Z,101702.56
2022-11-20T03:51:36.856Z,101709.03
2022-11-20T03:54:09.230Z,101712.03
2022-11-20T03:56:38.752Z,101716.66
2022-11-20T03:59:06.530Z,101707.94
2022-11-20T04:01:37.213Z,101706.97
2022-11-20T04:04:05.083Z,101705.78
2022-11-20T04:06:36.733Z,101705.25
2022-11-20T04:09:04.907Z,101698.59
2022-11-20T04:11:34.443Z,101707.81
2022-11-20T04:14:07.024Z,101694.69
2022-11-20T04:16:36.596Z,101688.44
2022-11-20T04:19:06.034Z,101679.75
2022-11-20T04:21:37.341Z,101681.38
2022-11-20T04:24:05.358Z,101666.31
2022-11-20T04:26:33.771Z,101665.31
2022-11-20T04:29:02.975Z,101661.25
2022-11-20T04:31:33.603Z,101669.53
2022-11-20T04:34:05.751Z,101651.56
2022-11-20T04:36:34.076Z,101656.41
2022-11-20T04:39:06.167Z,101651.25
2022-11-20T04:41:36.632Z,101650.50
2022-11-20T04:44:05.909Z,101656.81
2022-11-20T04:46:38.220Z,101653.94
2022-11-20T04:49:06.468Z,101640.03
2022-11-20T04:51:34.665Z,101651.84
2022-11-20T04:54:03.979Z,101642.97
2022-11-20T04:56:32.441Z,101650.78
2022-11-20T04:59:03.313Z,101650.78
2022-11-20T05:01:31.503Z,101641.75
2022-11-20T05:04:18.183Z,101651.63
2022-11-20T05:06:46.924Z,101664.66
2022-11-20T05:09:14.797Z,101687.06
2022-11-20T05:11:43.405Z,101678.31
2022-11-20T05:14:16.215Z,101676.16
2022-11-20T05:16:46.799Z,101662.81
2022-11-20T05:19:14.509Z,101655.16
2022-11-20T05:21:42.206Z,101655.69
2022-11-20T05:24:10.077Z,101652.81
2022-11-20T05:26:39.144Z,101663.13
2022-11-20T05:29:06.906Z,101662.56
2022-11-20T05:31:39.885Z,101662.56
2022-11-20T05:34:12.438Z,101677.44
2022-11-20T05:36:40.690Z,101681.00
2022-11-20T05:39:08.695Z,101686.91
2022-11-20T05:41:37.113Z,101692.84
2022-11-20T05:44:05.332Z,101687.44
2022-11-20T05:46:36.052Z,101683.16
2022-11-20T05:49:03.982Z,101684.09
2022-11-20T05:51:37.766Z,101673.03
2022-11-20T05:54:08.642Z,101641.38
2022-11-20T05:56:36.496Z,101652.25
2022-11-20T05:59:04.189Z,101653.97
2022-11-20T06:01:31.826Z,101637.19
2022-11-20T06:04:00.052Z,101619.13
2022-11-20T06:06:27.889Z,101625.78
2022-11-20T06:08:56.101Z,101617.31
2022-11-20T06:11:24.449Z,101605.16
2022-11-20T06:13:52.167Z,101615.50
2022-11-20T06:16:21.548Z,101606.66
2022-11-20T06:18:49.761Z,101615.38
2022-11-20T06:21:21.976Z,101622.50
2022-11-20T06:23:50.546Z,101613.91
2022-11-20T06:26:20.559Z,101620.25
2022-11-20T06:28:48.632Z,101622.59
2022-11-20T06:31:18.844Z,101625.94
2022-11-20T06:33:47.135Z,101634.22
2022-11-20T06:36:16.216Z,101639.47
2022-11-20T06:38:46.352Z,101624.13
2022-11-20T06:41:19.865Z,101628.75
2022-11-20T06:43:47.828Z,101621.44
2022-11-20T06:46:18.711Z,101608.63
2022-11-20T06:48:47.424Z,101602.19
2022-11-20T06:51:15.658Z,101603.47
2022-11-20T06:53:43.552Z,101611.53
2022-11-20T06:56:11.204Z,101593.38
2022-11-20T06:58:39.199Z,101595.09
2022-11-20T07:01:14.262Z,101592.72
2022-11-20T07:03:42.756Z,101591.88
2022-11-20T07:06:10.527Z,101597.47
2022-11-20T07:08:38.682Z,101606.94
2022-11-20T07:11:07.395Z,101613.59
2022-11-20T11:04:28.738Z,101229.28
2022-11-20T11:07:02.484Z,101200.44
2022-11-20T11:09:35.757Z,101210.09
2022-11-20T11:12:07.957Z,101211.56
2022-11-20T11:14:46.993Z,101222.94
2022-11-20T11:17:28.074Z,101236.91
2022-11-20T11:20:21.812Z,101230.88
2022-11-20T11:22:53.675Z,101214.66
2022-11-20T11:25:27.649Z,101190.66
2022-11-20T11:27:57.462Z,101171.22
2022-11-20T11:30:25.729Z,101182.59
2022-11-20T11:33:05.531Z,101200.69
2022-11-20T11:35:35.407Z,101191.63
2022-11-20T11:38:05.948Z,101170.72
2022-11-20T11:40:36.573Z,101173.91
2022-11-20T11:43:38.108Z,101169.63
2022-11-20T11:46:24.770Z,101176.59
2022-11-20T11:49:00.639Z,101174.75
2022-11-20T11:52:05.938Z,101181.25
2022-11-20T11:54:44.586Z,101178.31
2022-11-20T11:57:38.248Z,101182.84
2022-11-20T12:00:10.262Z,101177.19
2022-11-20T12:02:54.003Z,101165.09
2022-11-20T12:05:39.836Z,101164.97
2022-11-20T12:08:28.813Z,101186.63
2022-11-20T12:11:15.807Z,101175.00
2022-11-20T12:13:54.641Z,101167.41
2022-11-20T12:16:22.296Z,101170.34
2022-11-20T12:18:52.670Z,101179.28
2022-11-20T12:21:32.536Z,101162.66
2022-11-20T12:24:22.220Z,101162.53
2022-11-20T12:27:11.802Z,101147.50
2022-11-20T12:29:47.856Z,101146.41
2022-11-20T12:32:44.305Z,101139.94
2022-11-20T12:35:39.140Z,101150.91
2022-11-20T12:38:20.044Z,101151.78
2022-11-20T12:40:57.217Z,101151.41
2022-11-20T12:43:47.142Z,101147.13
2022-11-20T12:46:36.179Z,101142.72
2022-11-20T12:49:25.364Z,101138.19
2022-11-20T12:52:04.818Z,101125.97
2022-11-20T12:54:39.082Z,101126.31
2022-11-20T12:57:31.095Z,101117.16
2022-11-20T13:00:08.501Z,101110.56
2022-11-20T13:03:06.294Z,101107.28
2022-11-20T13:06:01.057Z,101115.66
2022-11-20T13:08:37.513Z,101100.53
2022-11-20T13:11:26.605Z,101098.34
2022-11-20T13:14:26.500Z,101088.44
2022-11-20T13:17:30.999Z,101066.31
2022-11-20T13:20:00.193Z,101063.47
2022-11-20T13:22:45.218Z,101053.72
2022-11-20T13:25:28.004Z,101064.47
2022-11-20T13:27:57.191Z,101064.97
2022-11-20T13:30:26.273Z,101056.19
2022-11-20T13:33:08.099Z,101046.25
2022-11-20T13:35:58.416Z,101040.38
2022-11-20T13:38:28.840Z,101040.16
2022-11-20T13:41:24.474Z,101040.28
2022-11-20T13:43:53.429Z,101034.75
2022-11-20T13:46:25.741Z,101027.19
2022-11-20T13:49:01.552Z,101014.97
2022-11-20T13:51:39.300Z,101010.56
2022-11-20T13:54:21.159Z,101025.09
2022-11-20T13:57:11.340Z,101023.91
2022-11-20T13:59:52.116Z,101046.53
2022-11-20T14:02:24.835Z,101035.75
2022-11-20T14:04:57.858Z,100976.59
2022-11-20T14:07:40.164Z,100959.09
2022-11-20T14:10:27.075Z,100971.72
2022-11-20T14:12:59.469Z,100978.06
2022-11-20T14:15:30.713Z,100979.03
2022-11-20T14:17:59.576Z,100957.03
2022-11-20T14:20:32.418Z,100948.72
2022-11-20T14:23:00.411Z,100968.66
2022-11-20T14:25:39.768Z,100972.41
2022-11-20T14:28:12.027Z,100986.84
2022-11-20T14:30:48.282Z,100972.41
2022-11-20T14:33:16.947Z,100970.47
2022-11-20T14:35:50.880Z,100962.88
2022-11-20T14:38:21.400Z,100969.22
2022-11-20T14:40:49.392Z,100958.72
2022-11-20T14:43:24.590Z,100953.22
2022-11-20T14:46:11.435Z,100948.69
2022-11-20T14:48:41.167Z,100945.50
2022-11-20T14:51:13.251Z,100960.06
2022-11-20T14:53:44.318Z,100944.78
2022-11-20T14:56:12.656Z,100927.38
2022-11-20T14:58:40.758Z,100927.63
2022-11-20T15:01:13.434Z,100927.38
2022-11-20T15:03:43.098Z,100922.47
2022-11-20T15:06:12.782Z,100934.56
2022-11-20T15:08:53.272Z,100923.22
2022-11-20T15:11:28.709Z,100929.19
2022-11-20T15:13:56.996Z,100936.41
2022-11-20T15:16:28.120Z,100941.53
2022-11-20T15:19:01.247Z,100956.25
2022-11-20T15:21:29.079Z,100958.94
2022-11-20T15:23:57.457Z,100949.59
2022-11-20T15:26:26.908Z,100947.63
2022-11-20T15:28:54.929Z,100939.84
2022-11-20T15:31:24.773Z,100926.97
2022-11-20T15:34:01.591Z,100893.81
2022-11-20T15:36:29.698Z,100879.41
2022-11-20T15:38:57.728Z,100872.56
2022-11-20T15:41:25.906Z,100865.22
2022-11-20T15:43:56.698Z,100860.81
2022-11-20T15:46:27.652Z,100877.50
2022-11-20T15:48:56.285Z,100880.19
2022-11-20T15:51:32.344Z,100875.84
2022-11-20T15:54:00.432Z,100866.66
2022-11-20T15:56:28.515Z,100857.63
2022-11-20T15:58:56.651Z,100850.25
2022-11-20T16:01:24.567Z,100858.59
2022-11-20T16:03:52.955Z,100860.41
2022-11-20T16:06:22.297Z,100864.13
2022-11-20T16:08:51.628Z,100885.50
2022-11-20T16:11:19.685Z,100955.47
2022-11-20T16:14:06.333Z,100970.03
2022-11-20T16:16:36.699Z,100928.56
2022-11-20T16:19:05.460Z,100885.38
2022-11-20T18:59:54.580Z,100614.19
2022-11-20T19:02:23.541Z,100603.72
2022-11-20T19:04:52.140Z,100604.84
2022-11-20T19:07:20.623Z,100601.00
2022-11-20T19:09:52.925Z,100581.72
2022-11-20T19:12:21.164Z,100582.41
2022-11-20T19:14:50.216Z,100576.31
2022-11-20T19:17:18.892Z,100577.75
2022-11-20T19:19:49.791Z,100575.91
2022-11-20T19:22:17.689Z,100580.16
2022-11-20T19:24:46.191Z,100579.00
2022-11-20T19:27:14.817Z,100569.91
2022-11-20T19:29:42.752Z,100562.53
2022-11-20T19:32:10.630Z,100556.84
2022-11-20T19:34:38.672Z,100551.88
2022-11-20T19:37:06.607Z,100558.97
2022-11-20T19:39:36.476Z,100552.72
2022-11-20T19:42:05.382Z,100556.28
2022-11-20T19:44:33.618Z,100554.84
2022-11-20T19:47:03.379Z,100557.69
2022-11-20T19:49:31.520Z,100540.22
2022-11-20T19:51:59.561Z,100547.75
2022-11-20T19:54:27.549Z,100539.91
2022-11-20T19:56:55.672Z,100548.00
2022-11-20T19:59:23.626Z,100546.31
2022-11-20T20:01:52.479Z,100542.31
2022-11-20T20:04:20.748Z,100544.31
2022-11-20T20:06:50.932Z,100538.06
2022-11-20T20:09:18.798Z,100547.72
2022-11-20T20:11:47.357Z,100544.03
2022-11-20T20:14:16.080Z,100540.59
2022-11-20T20:16:45.876Z,100540.44
2022-11-20T20:19:15.256Z,100536.47
2022-11-20T20:21:44.122Z,100544.22
2022-11-20T20:24:12.397Z,100536.47
2022-11-20T20:26:40.337Z,100535.44
2022-11-20T20:29:08.212Z,100535.16
2022-11-20T20:31:36.153Z,100530.31
2022-11-20T20:34:05.566Z,100514.66
2022-11-20T20:36:33.480Z,100518.06
2022-11-20T20:39:02.912Z,100518.63
2022-11-20T20:41:31.096Z,100521.16
2022-11-20T20:44:17.562Z,100531.66
2022-11-20T20:46:45.635Z,100525.97
2022-11-20T20:49:13.641Z,100519.25
2022-11-20T20:51:41.554Z,100521.66
2022-11-20T20:54:09.715Z,100520.81
2022-11-20T20:56:37.600Z,100510.75
2022-11-20T20:59:06.685Z,100515.97
2022-11-20T21:01:34.680Z,100513.69
2022-11-20T21:04:02.932Z,100518.09
2022-11-20T21:06:31.009Z,100515.38
2022-11-20T21:08:59.229Z,100522.16
2022-11-20T21:11:27.556Z,100518.16
2022-11-20T21:13:56.861Z,100517.84
2022-11-20T21:16:25.707Z,100511.88
2022-11-20T21:18:54.735Z,100513.13
2022-11-20T21:21:41.321Z,100514.66
2022-11-20T21:24:09.327Z,100508.41
2022-11-20T21:26:37.341Z,100510.94
2022-11-20T21:29:05.636Z,100522.75
2022-11-20T21:31:33.504Z,100514.31
2022-11-20T21:34:02.106Z,100507.25
2022-11-20T21:36:31.249Z,100500.69
2022-11-20T21:38:59.848Z,100488.88
2022-11-20T21:41:28.735Z,100486.41
2022-11-20T21:46:46.181Z,100486.97
2022-11-20T21:49:15.897Z,100476.47
2022-11-20T21:51:43.686Z,100480.72
2022-11-20T21:54:11.977Z,100478.69
2022-11-20T21:56:39.928Z,100473.69
2022-11-20T21:59:12.327Z,100467.28
2022-11-20T22:01:40.265Z,100461.88
2022-11-20T22:04:12.884Z,100453.59
2022-11-20T22:06:40.636Z,100455.63
